createdAt,value
2018-07-02T00:00:38.926Z,0.00
2018-07-02T00:01:38.902Z,0.00
2018-07-02T00:02:38.896Z,0.00
2018-07-02T00:03:38.884Z,0.00
2018-07-02T00:04:38.865Z,0.00
2018-07-02T00:05:38.869Z,0.00
2018-07-02T00:06:38.838Z,0.00
2018-07-02T00:07:38.821Z,0.00
2018-07-02T00:08:38.807Z,0.00
2018-07-02T00:09:38.793Z,0.00
2018-07-02T00:10:38.780Z,0.00
2018-07-02T00:11:38.786Z,0.00
2018-07-02T00:12:38.756Z,0.00
2018-07-02T00:13:38.739Z,0.00
2018-07-02T00:14:38.725Z,0.00
2018-07-02T00:15:38.715Z,0.00
2018-07-02T00:16:38.704Z,0.00
2018-07-02T00:17:38.700Z,0.00
2018-07-02T00:18:38.677Z,0.00
2018-07-02T00:19:38.659Z,0.00
2018-07-02T00:20:38.646Z,0.00
2018-07-02T00:21:38.631Z,0.00
2018-07-02T00:22:38.636Z,0.00
2018-07-02T00:23:38.608Z,0.00
2018-07-02T00:24:38.594Z,0.00
2018-07-02T00:25:38.581Z,0.00
2018-07-02T00:26:38.569Z,0.00
2018-07-02T00:27:38.551Z,0.00
2018-07-02T00:28:38.549Z,0.00
2018-07-02T00:29:38.529Z,0.00
2018-07-02T00:30:38.515Z,0.00
2018-07-02T00:31:38.506Z,0.00
2018-07-02T00:32:38.486Z,0.00
2018-07-02T00:33:38.483Z,0.00
2018-07-02T00:34:38.461Z,0.00
2018-07-02T00:35:38.451Z,0.00
2018-07-02T00:36:38.437Z,0.00
2018-07-02T00:37:38.427Z,0.00
2018-07-02T00:38:38.412Z,0.00
2018-07-02T00:39:38.411Z,0.00
2018-07-02T00:40:38.383Z,0.00
2018-07-02T00:41:38.370Z,0.00
2018-07-02T00:42:38.397Z,0.00
2018-07-02T00:43:38.349Z,0.00
2018-07-02T00:44:38.351Z,0.00
2018-07-02T00:45:38.319Z,0.00
2018-07-02T00:46:38.306Z,0.00
2018-07-02T00:47:38.296Z,0.00
2018-07-02T00:48:38.283Z,0.00
2018-07-02T00:49:38.271Z,0.00
2018-07-02T00:50:38.268Z,0.00
2018-07-02T00:51:38.241Z,0.00
2018-07-02T00:52:38.230Z,0.00
2018-07-02T00:53:38.218Z,0.00
2018-07-02T00:54:38.208Z,0.00
2018-07-02T00:55:38.215Z,0.00
2018-07-02T00:56:38.186Z,0.00
2018-07-02T00:57:38.174Z,0.00
2018-07-02T00:58:38.163Z,0.00
2018-07-02T00:59:38.149Z,0.00
2018-07-02T01:00:38.138Z,0.00
2018-07-02T01:01:38.140Z,0.00
2018-07-02T01:02:38.118Z,0.00
2018-07-02T01:03:38.104Z,0.00
2018-07-02T01:04:38.094Z,0.00
2018-07-02T01:05:38.082Z,0.00
2018-07-02T01:06:38.084Z,0.00
2018-07-02T01:07:38.065Z,0.00
2018-07-02T01:08:38.054Z,0.00
2018-07-02T01:09:38.044Z,0.00
2018-07-02T01:10:38.034Z,0.00
2018-07-02T01:11:38.039Z,0.00
2018-07-02T01:12:38.011Z,0.00
2018-07-02T01:13:38.004Z,0.00
2018-07-02T01:14:37.992Z,0.00
2018-07-02T01:15:37.986Z,0.00
2018-07-02T01:16:37.977Z,0.00
2018-07-02T01:17:37.974Z,0.00
2018-07-02T01:18:37.954Z,0.00
2018-07-02T01:19:37.948Z,0.00
2018-07-02T01:20:37.940Z,0.00
2018-07-02T01:21:37.931Z,0.00
2018-07-02T01:22:37.939Z,0.00
2018-07-02T01:23:37.912Z,0.00
2018-07-02T01:24:37.903Z,0.00
2018-07-02T01:25:37.894Z,0.00
2018-07-02T01:26:37.885Z,0.00
2018-07-02T01:27:37.879Z,0.00
2018-07-02T01:28:37.881Z,0.00
2018-07-02T01:29:37.864Z,0.00
2018-07-02T01:30:37.855Z,0.00
2018-07-02T01:31:37.843Z,0.00
2018-07-02T01:32:37.834Z,0.00
2018-07-02T01:33:37.848Z,0.00
2018-07-02T01:34:37.823Z,0.00
2018-07-02T01:35:37.810Z,0.00
2018-07-02T01:36:37.808Z,0.00
2018-07-02T01:37:37.795Z,0.00
2018-07-02T01:38:37.787Z,0.00
2018-07-02T01:39:37.793Z,0.00
2018-07-02T01:40:37.774Z,0.00
2018-07-02T01:41:37.767Z,0.00
2018-07-02T01:42:37.768Z,0.00
2018-07-02T01:43:37.748Z,0.00
2018-07-02T01:44:37.756Z,0.00
2018-07-02T01:45:37.732Z,0.00
2018-07-02T01:46:37.723Z,0.00
2018-07-02T01:47:37.719Z,0.00
2018-07-02T01:48:37.710Z,0.00
2018-07-02T01:49:37.700Z,0.00
2018-07-02T01:50:37.701Z,0.00
2018-07-02T01:51:37.686Z,0.00
2018-07-02T01:52:37.681Z,0.00
2018-07-02T01:53:37.673Z,0.00
2018-07-02T01:54:37.663Z,0.00
2018-07-02T01:55:37.669Z,0.00
2018-07-02T01:56:37.644Z,0.00
2018-07-02T01:57:37.636Z,0.00
2018-07-02T01:58:37.627Z,0.00
2018-07-02T01:59:37.623Z,0.00
2018-07-02T02:00:37.616Z,0.00
2018-07-02T02:01:37.617Z,0.00
2018-07-02T02:02:37.600Z,0.00
2018-07-02T02:03:37.589Z,0.00
2018-07-02T02:04:37.580Z,0.00
2018-07-02T02:05:37.577Z,0.00
2018-07-02T02:06:37.586Z,0.00
2018-07-02T02:07:37.557Z,0.00
2018-07-02T02:08:37.549Z,0.00
2018-07-02T02:09:37.541Z,0.00
2018-07-02T02:10:37.538Z,0.00
2018-07-02T02:11:37.540Z,0.00
2018-07-02T02:12:37.531Z,0.00
2018-07-02T02:13:37.512Z,0.00
2018-07-02T02:14:37.505Z,0.00
2018-07-02T02:15:37.494Z,0.00
2018-07-02T02:16:37.487Z,0.00
2018-07-02T02:17:37.495Z,0.00
2018-07-02T02:18:37.470Z,0.00
2018-07-02T02:19:37.465Z,0.00
2018-07-02T02:20:37.458Z,0.00
2018-07-02T02:21:37.447Z,0.00
2018-07-02T02:22:37.438Z,0.00
2018-07-02T02:23:37.443Z,0.00
2018-07-02T02:24:37.428Z,0.00
2018-07-02T02:25:37.419Z,0.00
2018-07-02T02:26:37.412Z,0.00
2018-07-02T02:27:37.399Z,0.00
2018-07-02T02:28:37.413Z,0.00
2018-07-02T02:29:37.384Z,0.00
2018-07-02T02:30:37.374Z,0.00
2018-07-02T02:31:37.373Z,0.00
2018-07-02T02:32:37.362Z,0.00
2018-07-02T02:33:37.353Z,0.00
2018-07-02T02:34:37.356Z,0.00
2018-07-02T02:35:37.335Z,0.00
2018-07-02T02:36:37.332Z,0.00
2018-07-02T02:37:37.336Z,0.00
2018-07-02T02:38:37.331Z,0.00
2018-07-02T02:39:37.322Z,0.00
2018-07-02T02:40:37.301Z,0.00
2018-07-02T02:41:37.293Z,0.00
2018-07-02T02:42:37.279Z,0.00
2018-07-02T02:43:37.275Z,0.00
2018-07-02T02:44:37.266Z,0.00
2018-07-02T02:45:37.270Z,0.00
2018-07-02T02:46:37.250Z,0.00
2018-07-02T02:47:37.239Z,0.00
2018-07-02T02:48:37.231Z,0.00
2018-07-02T02:49:37.224Z,0.00
2018-07-02T02:50:37.230Z,0.00
2018-07-02T02:51:37.210Z,0.00
2018-07-02T02:52:37.204Z,0.00
2018-07-02T02:53:37.192Z,0.00
2018-07-02T02:54:37.183Z,0.00
2018-07-02T02:55:37.181Z,0.00
2018-07-02T02:56:37.184Z,0.00
2018-07-02T02:57:37.169Z,0.00
2018-07-02T02:58:37.157Z,0.00
2018-07-02T02:59:37.146Z,0.00
2018-07-02T03:00:37.137Z,0.00
2018-07-02T03:01:37.146Z,0.00
2018-07-02T03:02:37.121Z,0.00
2018-07-02T03:03:37.124Z,0.00
2018-07-02T03:04:37.112Z,5.62
2018-07-02T03:05:37.102Z,5.62
2018-07-02T03:06:37.105Z,5.62
2018-07-02T03:07:37.092Z,5.62
2018-07-02T03:08:37.074Z,5.62
2018-07-02T03:09:37.093Z,5.62
2018-07-02T03:10:37.062Z,5.62
2018-07-02T03:11:37.051Z,5.62
2018-07-02T03:12:37.053Z,11.25
2018-07-02T03:13:37.033Z,11.25
2018-07-02T03:14:37.025Z,11.25
2018-07-02T03:15:37.020Z,11.25
2018-07-02T03:16:37.012Z,11.25
2018-07-02T03:17:37.021Z,16.88
2018-07-02T03:18:36.995Z,16.88
2018-07-02T03:19:36.982Z,16.88
2018-07-02T03:20:36.972Z,16.88
2018-07-02T03:21:36.963Z,22.50
2018-07-02T03:22:36.952Z,22.50
2018-07-02T03:23:36.962Z,22.50
2018-07-02T03:24:36.938Z,28.12
2018-07-02T03:25:36.924Z,28.12
2018-07-02T03:26:36.916Z,28.12
2018-07-02T03:27:36.907Z,33.75
2018-07-02T03:28:36.900Z,33.75
2018-07-02T03:29:36.897Z,33.75
2018-07-02T03:30:36.877Z,39.38
2018-07-02T03:31:36.866Z,39.38
2018-07-02T03:32:36.854Z,39.38
2018-07-02T03:33:36.843Z,45.00
2018-07-02T03:34:36.852Z,45.00
2018-07-02T03:35:36.827Z,45.00
2018-07-02T03:36:36.816Z,50.62
2018-07-02T03:37:36.807Z,50.62
2018-07-02T03:38:36.796Z,56.25
2018-07-02T03:39:36.783Z,56.25
2018-07-02T03:40:36.783Z,56.25
2018-07-02T03:41:36.766Z,61.88
2018-07-02T03:42:36.758Z,61.88
2018-07-02T03:43:36.745Z,67.50
2018-07-02T03:44:36.732Z,67.50
2018-07-02T03:45:36.739Z,67.50
2018-07-02T03:46:36.712Z,73.12
2018-07-02T03:47:36.705Z,73.12
2018-07-02T03:48:36.695Z,73.12
2018-07-02T03:49:36.684Z,78.75
2018-07-02T03:50:36.675Z,78.75
2018-07-02T03:51:36.670Z,84.38
2018-07-02T03:52:36.654Z,84.38
2018-07-02T03:53:36.641Z,84.38
2018-07-02T03:54:36.630Z,90.00
2018-07-02T03:55:36.624Z,90.00
2018-07-02T03:56:36.629Z,95.62
2018-07-02T03:57:36.600Z,95.62
2018-07-02T03:58:36.590Z,95.62
2018-07-02T03:59:36.583Z,101.25
2018-07-02T04:00:36.573Z,101.25
2018-07-02T04:01:36.567Z,101.25
2018-07-02T04:02:36.563Z,106.88
2018-07-02T04:03:36.541Z,106.88
2018-07-02T04:04:36.529Z,106.88
2018-07-02T04:05:36.521Z,112.50
2018-07-02T04:06:36.511Z,112.50
2018-07-02T04:07:36.524Z,112.50
2018-07-02T04:08:36.498Z,118.12
2018-07-02T04:09:36.489Z,118.12
2018-07-02T04:10:36.481Z,118.12
2018-07-02T04:11:36.467Z,123.75
2018-07-02T04:12:36.458Z,123.75
2018-07-02T04:13:36.463Z,123.75
2018-07-02T04:14:36.445Z,129.38
2018-07-02T04:15:36.431Z,129.38
2018-07-02T04:16:36.428Z,129.38
2018-07-02T04:17:36.414Z,135.00
2018-07-02T04:18:36.422Z,135.00
2018-07-02T04:19:36.400Z,135.00
2018-07-02T04:20:36.392Z,140.62
2018-07-02T04:21:36.383Z,140.62
2018-07-02T04:22:36.375Z,140.62
2018-07-02T04:23:36.362Z,140.62
2018-07-02T04:24:36.367Z,140.62
2018-07-02T04:25:36.346Z,140.62
2018-07-02T04:26:36.338Z,140.62
2018-07-02T04:27:36.333Z,146.25
2018-07-02T04:28:36.326Z,146.25
2018-07-02T04:29:36.323Z,146.25
2018-07-02T04:30:36.304Z,146.25
2018-07-02T04:31:36.298Z,151.88
2018-07-02T04:32:36.294Z,151.88
2018-07-02T04:33:36.281Z,151.88
2018-07-02T04:34:36.293Z,151.88
2018-07-02T04:35:36.261Z,151.88
2018-07-02T04:36:36.252Z,157.50
2018-07-02T04:37:36.245Z,157.50
2018-07-02T04:38:36.235Z,157.50
2018-07-02T04:39:36.232Z,157.50
2018-07-02T04:40:36.241Z,163.12
2018-07-02T04:41:36.214Z,163.12
2018-07-02T04:42:36.207Z,163.12
2018-07-02T04:43:36.195Z,168.75
2018-07-02T04:44:36.209Z,168.75
2018-07-02T04:45:36.187Z,168.75
2018-07-02T04:46:36.191Z,168.75
2018-07-02T04:47:36.166Z,174.38
2018-07-02T04:48:36.159Z,174.38
2018-07-02T04:49:36.150Z,174.38
2018-07-02T04:50:36.147Z,174.38
2018-07-02T04:51:36.145Z,174.38
2018-07-02T04:52:36.128Z,174.38
2018-07-02T04:53:36.118Z,180.00
2018-07-02T04:54:36.119Z,180.00
2018-07-02T04:55:36.101Z,180.00
2018-07-02T04:56:36.109Z,180.00
2018-07-02T04:57:36.082Z,185.62
2018-07-02T04:58:36.072Z,185.62
2018-07-02T04:59:36.068Z,185.62
2018-07-02T05:00:36.055Z,185.62
2018-07-02T05:01:36.047Z,185.62
2018-07-02T05:02:36.050Z,191.25
2018-07-02T05:03:36.026Z,191.25
2018-07-02T05:04:36.018Z,191.25
2018-07-02T05:05:36.004Z,191.25
2018-07-02T05:06:35.995Z,191.25
2018-07-02T05:07:35.985Z,196.88
2018-07-02T05:08:35.980Z,196.88
2018-07-02T05:09:35.964Z,196.88
2018-07-02T05:10:35.948Z,196.88
2018-07-02T05:11:35.940Z,202.50
2018-07-02T05:12:35.929Z,202.50
2018-07-02T05:13:35.935Z,202.50
2018-07-02T05:14:35.907Z,202.50
2018-07-02T05:15:35.892Z,208.12
2018-07-02T05:16:35.879Z,208.12
2018-07-02T05:17:35.871Z,208.12
2018-07-02T05:18:35.863Z,208.12
2018-07-02T05:19:35.855Z,213.75
2018-07-02T05:20:35.832Z,213.75
2018-07-02T05:21:35.818Z,213.75
2018-07-02T05:22:35.807Z,213.75
2018-07-02T05:23:35.796Z,219.38
2018-07-02T05:24:35.797Z,219.38
2018-07-02T05:25:35.768Z,219.38
2018-07-02T05:26:35.806Z,219.38
2018-07-02T05:27:35.878Z,225.00
2018-07-02T05:28:35.723Z,225.00
2018-07-02T05:29:35.710Z,225.00
2018-07-02T05:30:35.707Z,225.00
2018-07-02T05:31:35.687Z,225.00
2018-07-02T05:32:35.799Z,225.00
2018-07-02T05:33:35.658Z,225.00
2018-07-02T05:34:35.645Z,225.00
2018-07-02T05:35:35.651Z,225.00
2018-07-02T05:36:35.622Z,225.00
2018-07-02T05:37:35.612Z,225.00
2018-07-02T05:38:35.597Z,230.62
2018-07-02T05:39:35.608Z,230.62
2018-07-02T05:40:35.570Z,230.62
2018-07-02T05:41:35.568Z,230.62
2018-07-02T05:42:35.546Z,230.62
2018-07-02T05:43:35.536Z,230.62
2018-07-02T05:44:35.524Z,236.25
2018-07-02T05:45:35.514Z,236.25
2018-07-02T05:46:35.517Z,236.25
2018-07-02T05:47:35.486Z,236.25
2018-07-02T05:48:35.495Z,236.25
2018-07-02T05:49:35.468Z,236.25
2018-07-02T05:50:35.455Z,241.88
2018-07-02T05:51:35.460Z,241.88
2018-07-02T05:52:35.430Z,247.50
2018-07-02T05:53:35.417Z,241.88
2018-07-02T05:54:35.409Z,241.88
2018-07-02T05:55:35.400Z,241.88
2018-07-02T05:56:35.388Z,247.50
2018-07-02T05:57:35.478Z,247.50
2018-07-02T05:58:35.366Z,247.50
2018-07-02T05:59:35.352Z,247.50
2018-07-02T06:00:35.385Z,253.12
2018-07-02T06:01:35.331Z,253.12
2018-07-02T06:02:35.337Z,253.12
2018-07-02T06:03:35.313Z,253.12
2018-07-02T06:04:35.300Z,258.75
2018-07-02T06:05:35.287Z,258.75
2018-07-02T06:06:35.276Z,264.38
2018-07-02T06:07:35.268Z,264.38
2018-07-02T06:08:35.268Z,270.00
2018-07-02T06:09:35.247Z,270.00
2018-07-02T06:10:35.235Z,281.25
2018-07-02T06:11:35.222Z,286.88
2018-07-02T06:12:35.211Z,298.12
2018-07-02T06:13:35.219Z,303.75
2018-07-02T06:14:35.189Z,315.00
2018-07-02T06:15:35.183Z,489.38
2018-07-02T06:16:35.186Z,1220.62
2018-07-02T06:17:35.159Z,1890.00
2018-07-02T06:18:35.149Z,1980.00
2018-07-02T06:19:35.144Z,2081.25
2018-07-02T06:20:35.126Z,2131.88
2018-07-02T06:21:35.116Z,2137.50
2018-07-02T06:22:35.105Z,2058.75
2018-07-02T06:23:35.091Z,2025.00
2018-07-02T06:24:35.098Z,2143.12
2018-07-02T06:25:35.070Z,2193.75
2018-07-02T06:26:35.059Z,2233.12
2018-07-02T06:27:35.052Z,2210.62
2018-07-02T06:28:35.040Z,2182.50
2018-07-02T06:29:35.037Z,2261.25
2018-07-02T06:30:35.120Z,2233.12
2018-07-02T06:31:35.004Z,2188.12
2018-07-02T06:32:34.995Z,2143.12
2018-07-02T06:33:34.983Z,2188.12
2018-07-02T06:34:34.974Z,2205.00
2018-07-02T06:35:34.982Z,2250.00
2018-07-02T06:36:34.954Z,2345.62
2018-07-02T06:37:34.940Z,2317.50
2018-07-02T06:38:34.931Z,2272.50
2018-07-02T06:39:34.923Z,2238.75
2018-07-02T06:40:34.911Z,2289.38
2018-07-02T06:41:34.912Z,2368.12
2018-07-02T06:42:34.891Z,2458.12
2018-07-02T06:43:34.875Z,2413.12
2018-07-02T06:44:34.865Z,2446.88
2018-07-02T06:45:34.872Z,2430.00
2018-07-02T06:46:34.844Z,2469.38
2018-07-02T06:47:34.837Z,2407.50
2018-07-02T06:48:34.876Z,2413.12
2018-07-02T06:49:34.815Z,2486.25
2018-07-02T06:50:34.803Z,2525.62
2018-07-02T06:51:34.805Z,2497.50
2018-07-02T06:52:34.779Z,2458.12
2018-07-02T06:53:34.772Z,2469.38
2018-07-02T06:54:34.761Z,2531.25
2018-07-02T06:55:34.747Z,2514.38
2018-07-02T06:56:34.737Z,2536.88
2018-07-02T06:57:34.762Z,2610.00
2018-07-02T06:58:34.745Z,2593.12
2018-07-02T06:59:34.709Z,2581.88
2018-07-02T07:00:34.697Z,2565.00
2018-07-02T07:01:34.688Z,2565.00
2018-07-02T07:02:34.676Z,2610.00
2018-07-02T07:03:34.676Z,2632.50
2018-07-02T07:04:34.652Z,2621.25
2018-07-02T07:05:34.645Z,2711.25
2018-07-02T07:06:34.633Z,2581.88
2018-07-02T07:07:34.626Z,2542.50
2018-07-02T07:08:34.684Z,2660.62
2018-07-02T07:09:34.602Z,2666.25
2018-07-02T07:10:34.590Z,2632.50
2018-07-02T07:11:34.583Z,2677.50
2018-07-02T07:12:34.572Z,2700.00
2018-07-02T07:13:34.562Z,2750.62
2018-07-02T07:14:34.564Z,2761.88
2018-07-02T07:15:34.604Z,2778.75
2018-07-02T07:16:34.528Z,2840.62
2018-07-02T07:17:34.520Z,2705.62
2018-07-02T07:18:34.507Z,2660.62
2018-07-02T07:19:34.518Z,2790.00
2018-07-02T07:20:34.492Z,2868.75
2018-07-02T07:21:34.481Z,2823.75
2018-07-02T07:22:34.471Z,2722.50
2018-07-02T07:23:34.457Z,2790.00
2018-07-02T07:24:34.448Z,2913.75
2018-07-02T07:25:34.451Z,2936.25
2018-07-02T07:26:34.431Z,2913.75
2018-07-02T07:27:34.459Z,2885.62
2018-07-02T07:28:34.411Z,2874.38
2018-07-02T07:29:34.396Z,2908.12
2018-07-02T07:30:34.403Z,2919.38
2018-07-02T07:31:34.380Z,3003.75
2018-07-02T07:32:34.373Z,3076.88
2018-07-02T07:33:34.359Z,3060.00
2018-07-02T07:34:34.348Z,2998.12
2018-07-02T07:35:34.337Z,2947.50
2018-07-02T07:36:34.337Z,2925.00
2018-07-02T07:37:34.322Z,3020.62
2018-07-02T07:38:34.306Z,3003.75
2018-07-02T07:39:34.299Z,3093.75
2018-07-02T07:40:34.290Z,3093.75
2018-07-02T07:41:34.295Z,3020.62
2018-07-02T07:42:34.272Z,3071.25
2018-07-02T07:43:34.261Z,3048.75
2018-07-02T07:44:34.251Z,3065.62
2018-07-02T07:45:34.242Z,3138.75
2018-07-02T07:46:34.231Z,3161.25
2018-07-02T07:47:34.230Z,3189.38
2018-07-02T07:48:34.213Z,3138.75
2018-07-02T07:49:34.198Z,3217.50
2018-07-02T07:50:34.189Z,3273.75
2018-07-02T07:51:34.182Z,3240.00
2018-07-02T07:52:34.182Z,3268.12
2018-07-02T07:53:34.164Z,3307.50
2018-07-02T07:54:34.152Z,3285.00
2018-07-02T07:55:34.142Z,3290.62
2018-07-02T07:56:34.131Z,3290.62
2018-07-02T07:57:34.143Z,3251.25
2018-07-02T07:58:34.114Z,3335.62
2018-07-02T07:59:34.157Z,3397.50
2018-07-02T08:00:34.092Z,3397.50
2018-07-02T08:01:34.082Z,3408.75
2018-07-02T08:02:34.075Z,3498.75
2018-07-02T08:03:34.136Z,3436.88
2018-07-02T08:04:34.058Z,3335.62
2018-07-02T08:05:34.049Z,3335.62
2018-07-02T08:06:34.040Z,3487.50
2018-07-02T08:07:34.026Z,3493.12
2018-07-02T08:08:34.018Z,3408.75
2018-07-02T08:09:34.018Z,3526.88
2018-07-02T08:10:34.062Z,3538.12
2018-07-02T08:11:33.997Z,3420.00
2018-07-02T08:12:33.987Z,3403.12
2018-07-02T08:13:33.971Z,3594.38
2018-07-02T08:14:33.979Z,3487.50
2018-07-02T08:15:33.957Z,3358.12
2018-07-02T08:16:33.949Z,3628.12
2018-07-02T08:17:33.938Z,3729.38
2018-07-02T08:18:33.934Z,3588.75
2018-07-02T08:19:33.917Z,3588.75
2018-07-02T08:20:33.919Z,3493.12
2018-07-02T08:21:33.900Z,3442.50
2018-07-02T08:22:33.890Z,3521.25
2018-07-02T08:23:33.888Z,3504.38
2018-07-02T08:24:33.875Z,3380.62
2018-07-02T08:25:33.893Z,3403.12
2018-07-02T08:26:33.859Z,3571.88
2018-07-02T08:27:33.844Z,3740.62
2018-07-02T08:28:33.838Z,3735.00
2018-07-02T08:29:33.831Z,3588.75
2018-07-02T08:30:33.824Z,3633.75
2018-07-02T08:31:33.822Z,3650.62
2018-07-02T08:32:33.801Z,3690.00
2018-07-02T08:33:33.793Z,3746.25
2018-07-02T08:34:33.786Z,3735.00
2018-07-02T08:35:33.777Z,3841.88
2018-07-02T08:36:33.784Z,3948.75
2018-07-02T08:37:33.765Z,3751.88
2018-07-02T08:38:33.753Z,3622.50
2018-07-02T08:39:33.743Z,3819.38
2018-07-02T08:40:33.732Z,3780.00
2018-07-02T08:41:33.744Z,3791.25
2018-07-02T08:42:33.725Z,3881.25
2018-07-02T08:43:33.712Z,3791.25
2018-07-02T08:44:33.702Z,3757.50
2018-07-02T08:45:33.697Z,3808.12
2018-07-02T08:46:33.700Z,3931.88
2018-07-02T08:47:33.700Z,3875.62
2018-07-02T08:48:33.669Z,3813.75
2018-07-02T08:49:33.662Z,3785.62
2018-07-02T08:50:33.656Z,3774.38
2018-07-02T08:51:33.648Z,3892.50
2018-07-02T08:52:33.641Z,3853.12
2018-07-02T08:53:33.642Z,3892.50
2018-07-02T08:54:33.623Z,3976.88
2018-07-02T08:55:33.613Z,4033.12
2018-07-02T08:56:33.604Z,4016.25
2018-07-02T08:57:33.595Z,3999.38
2018-07-02T08:58:33.606Z,4061.25
2018-07-02T08:59:33.577Z,4111.88
2018-07-02T09:00:33.566Z,4005.00
2018-07-02T09:01:33.559Z,3993.75
2018-07-02T09:02:33.550Z,4224.38
2018-07-02T09:03:33.538Z,4083.75
2018-07-02T09:04:33.546Z,3858.75
2018-07-02T09:05:33.521Z,3960.00
2018-07-02T09:06:33.510Z,4246.88
2018-07-02T09:07:33.505Z,4275.00
2018-07-02T09:08:33.495Z,4089.38
2018-07-02T09:09:33.499Z,4061.25
2018-07-02T09:10:33.481Z,4258.12
2018-07-02T09:11:33.467Z,4303.12
2018-07-02T09:12:33.469Z,4005.00
2018-07-02T09:13:33.447Z,4061.25
2018-07-02T09:14:33.456Z,4196.25
2018-07-02T09:15:33.434Z,4066.88
2018-07-02T09:16:33.425Z,4055.62
2018-07-02T09:17:33.413Z,4005.00
2018-07-02T09:18:33.410Z,4168.12
2018-07-02T09:19:33.401Z,4156.88
2018-07-02T09:20:33.409Z,4196.25
2018-07-02T09:21:33.384Z,4201.88
2018-07-02T09:22:33.376Z,4066.88
2018-07-02T09:23:33.364Z,4280.62
2018-07-02T09:24:33.358Z,4376.25
2018-07-02T09:25:33.422Z,4342.50
2018-07-02T09:26:33.363Z,4286.25
2018-07-02T09:27:33.334Z,4331.25
2018-07-02T09:28:33.325Z,4331.25
2018-07-02T09:29:33.318Z,4213.12
2018-07-02T09:30:33.311Z,4218.75
2018-07-02T09:31:33.308Z,4185.00
2018-07-02T09:32:33.295Z,4207.50
2018-07-02T09:33:33.283Z,4179.38
2018-07-02T09:34:33.278Z,4111.88
2018-07-02T09:35:33.283Z,4083.75
2018-07-02T09:36:33.273Z,4156.88
2018-07-02T09:37:33.244Z,4297.50
2018-07-02T09:38:33.242Z,4336.88
2018-07-02T09:39:33.231Z,4241.25
2018-07-02T09:40:33.225Z,4201.88
2018-07-02T09:41:33.214Z,4258.12
2018-07-02T09:42:33.225Z,4213.12
2018-07-02T09:43:33.195Z,4230.00
2018-07-02T09:44:33.186Z,4460.62
2018-07-02T09:45:33.189Z,4488.75
2018-07-02T09:46:33.168Z,4432.50
2018-07-02T09:47:33.163Z,4331.25
2018-07-02T09:48:33.341Z,4258.12
2018-07-02T09:49:33.167Z,4370.62
2018-07-02T09:50:33.140Z,4460.62
2018-07-02T09:51:33.134Z,4342.50
2018-07-02T09:52:33.121Z,3971.25
2018-07-02T09:53:33.129Z,3948.75
2018-07-02T09:54:33.106Z,646.88
2018-07-02T09:55:33.093Z,652.50
2018-07-02T09:56:33.084Z,652.50
2018-07-02T09:57:33.076Z,652.50
2018-07-02T09:58:33.068Z,652.50
2018-07-02T09:59:33.070Z,663.75
2018-07-02T10:00:33.101Z,663.75
2018-07-02T10:01:33.042Z,663.75
2018-07-02T10:02:33.033Z,663.75
2018-07-02T10:03:33.020Z,663.75
2018-07-02T10:04:33.027Z,4460.62
2018-07-02T10:05:33.005Z,4511.25
2018-07-02T10:06:33.040Z,4545.00
2018-07-02T10:07:32.984Z,4657.50
2018-07-02T10:08:32.975Z,4314.38
2018-07-02T10:09:32.968Z,4044.38
2018-07-02T10:10:32.969Z,4505.62
2018-07-02T10:11:32.958Z,4365.00
2018-07-02T10:12:32.961Z,4066.88
2018-07-02T10:13:32.939Z,4455.00
2018-07-02T10:14:32.931Z,4657.50
2018-07-02T10:15:32.940Z,4449.38
2018-07-02T10:16:32.915Z,4342.50
2018-07-02T10:17:32.906Z,4443.75
2018-07-02T10:18:32.906Z,4342.50
2018-07-02T10:19:32.895Z,4331.25
2018-07-02T10:20:32.888Z,4488.75
2018-07-02T10:21:32.889Z,4308.75
2018-07-02T10:22:32.870Z,4218.75
2018-07-02T10:23:37.333Z,4455.00
2018-07-02T10:24:32.862Z,4646.25
2018-07-02T10:25:32.853Z,4685.62
2018-07-02T10:26:32.898Z,4663.12
2018-07-02T10:27:32.837Z,4443.75
2018-07-02T10:28:32.829Z,4404.38
2018-07-02T10:29:32.823Z,4663.12
2018-07-02T10:30:32.815Z,4871.25
2018-07-02T10:31:32.814Z,4820.62
2018-07-02T10:32:32.815Z,444.38
2018-07-02T10:33:32.797Z,444.38
2018-07-02T10:34:32.789Z,444.38
2018-07-02T10:35:32.778Z,444.38
2018-07-02T10:36:32.769Z,427.50
2018-07-02T10:37:32.780Z,421.88
2018-07-02T10:38:32.755Z,421.88
2018-07-02T10:39:32.746Z,421.88
2018-07-02T10:40:32.733Z,421.88
2018-07-02T10:41:32.725Z,427.50
2018-07-02T10:42:32.716Z,427.50
2018-07-02T10:43:32.719Z,427.50
2018-07-02T10:44:32.701Z,433.12
2018-07-02T10:45:32.692Z,427.50
2018-07-02T10:46:32.682Z,421.88
2018-07-02T10:47:32.668Z,427.50
2018-07-02T10:48:32.679Z,427.50
2018-07-02T10:49:32.650Z,427.50
2018-07-02T10:50:32.641Z,427.50
2018-07-02T10:51:32.635Z,433.12
2018-07-02T10:52:32.627Z,433.12
2018-07-02T10:53:32.614Z,433.12
2018-07-02T10:54:32.613Z,438.75
2018-07-02T10:55:32.613Z,433.12
2018-07-02T10:56:32.590Z,433.12
2018-07-02T10:57:32.581Z,433.12
2018-07-02T10:58:32.573Z,433.12
2018-07-02T10:59:32.576Z,427.50
2018-07-02T11:00:32.548Z,427.50
2018-07-02T11:01:32.542Z,427.50
2018-07-02T11:02:32.532Z,427.50
2018-07-02T11:03:32.524Z,433.12
2018-07-02T11:04:32.514Z,427.50
2018-07-02T11:05:32.516Z,427.50
2018-07-02T11:06:32.496Z,427.50
2018-07-02T11:07:32.483Z,427.50
2018-07-02T11:08:32.477Z,427.50
2018-07-02T11:09:32.468Z,427.50
2018-07-02T11:10:32.469Z,478.12
2018-07-02T11:11:32.446Z,472.50
2018-07-02T11:12:32.436Z,427.50
2018-07-02T11:13:32.426Z,427.50
2018-07-02T11:14:32.419Z,427.50
2018-07-02T11:15:32.421Z,421.88
2018-07-02T11:16:32.402Z,421.88
2018-07-02T11:17:32.392Z,421.88
2018-07-02T11:18:32.387Z,421.88
2018-07-02T11:19:32.373Z,421.88
2018-07-02T11:20:32.379Z,4944.38
2018-07-02T11:21:32.352Z,4961.25
2018-07-02T11:22:32.343Z,5045.62
2018-07-02T11:23:32.376Z,4927.50
2018-07-02T11:24:32.331Z,4989.38
2018-07-02T11:25:32.319Z,5281.88
2018-07-02T11:26:32.327Z,5220.00
2018-07-02T11:27:32.312Z,5079.38
2018-07-02T11:28:32.299Z,5197.50
2018-07-02T11:29:32.291Z,5197.50
2018-07-02T11:30:32.285Z,5062.50
2018-07-02T11:31:32.280Z,5023.12
2018-07-02T11:32:32.281Z,5180.62
2018-07-02T11:33:32.258Z,5124.38
2018-07-02T11:34:32.251Z,5023.12
2018-07-02T11:35:32.246Z,5248.12
2018-07-02T11:36:32.240Z,5265.00
2018-07-02T11:37:32.281Z,5146.88
2018-07-02T11:38:32.236Z,5236.88
2018-07-02T11:39:32.215Z,5135.62
2018-07-02T11:40:32.208Z,4803.75
2018-07-02T11:41:32.204Z,4725.00
2018-07-02T11:42:32.273Z,4696.88
2018-07-02T11:43:32.203Z,4933.12
2018-07-02T11:44:32.182Z,5113.12
2018-07-02T11:45:32.194Z,5068.12
2018-07-02T11:46:32.165Z,5034.38
2018-07-02T11:47:33.023Z,4876.88
2018-07-02T11:48:32.159Z,4905.00
2018-07-02T11:49:32.176Z,4871.25
2018-07-02T11:51:40.897Z,4764.38
2018-07-02T11:52:40.891Z,4691.25
2018-07-02T11:53:40.884Z,4854.38
2018-07-02T11:54:40.889Z,4837.50
2018-07-02T11:55:40.873Z,4882.50
2018-07-02T11:56:40.867Z,5062.50
2018-07-02T11:57:40.860Z,5146.88
2018-07-02T11:58:40.854Z,4989.38
2018-07-02T11:59:40.865Z,4550.62
2018-07-02T12:00:40.838Z,4398.75
2018-07-02T12:01:40.831Z,4831.88
2018-07-02T12:02:40.825Z,5017.50
2018-07-02T12:03:40.828Z,4792.50
2018-07-02T12:04:40.815Z,4618.12
2018-07-02T12:05:40.821Z,4770.00
2018-07-02T12:06:40.801Z,5000.62
2018-07-02T12:07:40.796Z,4966.88
2018-07-02T12:08:40.792Z,4882.50
2018-07-02T12:09:40.784Z,4972.50
2018-07-02T12:10:40.796Z,5034.38
2018-07-02T12:11:40.769Z,4837.50
2018-07-02T12:12:40.766Z,4747.50
2018-07-02T12:13:40.756Z,4702.50
2018-07-02T12:14:40.759Z,4606.88
2018-07-02T12:15:40.746Z,4646.25
2018-07-02T12:16:40.752Z,4758.75
2018-07-02T12:17:40.734Z,4983.75
2018-07-02T12:18:40.728Z,4815.00
2018-07-02T12:19:40.718Z,4809.38
2018-07-02T12:20:40.712Z,4916.25
2018-07-02T12:21:40.726Z,4770.00
2018-07-02T12:22:40.706Z,4606.88
2018-07-02T12:23:40.694Z,4803.75
2018-07-02T12:24:40.688Z,4876.88
2018-07-02T12:25:40.680Z,4522.50
2018-07-02T12:26:40.673Z,4623.75
2018-07-02T12:27:40.679Z,4871.25
2018-07-02T12:28:40.670Z,4680.00
2018-07-02T12:29:40.656Z,4561.88
2018-07-02T12:30:40.652Z,4680.00
2018-07-02T12:31:40.641Z,4623.75
2018-07-02T12:32:40.650Z,4601.25
2018-07-02T12:33:40.627Z,4921.88